createdAt,value
2023-05-14T00:02:18.673Z,100630.98
2023-05-14T00:04:45.805Z,100623.11
2023-05-14T00:07:12.874Z,100606.13
2023-05-14T00:09:39.937Z,100608.80
2023-05-14T00:12:07.463Z,100608.81
2023-05-14T00:14:34.951Z,100605.43
2023-05-14T00:17:07.421Z,100605.58
2023-05-14T00:19:34.684Z,100614.82
2023-05-14T00:22:02.184Z,100609.08
2023-05-14T00:24:29.278Z,100601.02
2023-05-14T00:26:56.428Z,100586.38
2023-05-14T00:29:23.912Z,100576.25
2023-05-14T00:31:51.715Z,100573.41
2023-05-14T00:34:18.806Z,100569.42
2023-05-14T00:36:46.228Z,100566.55
2023-05-14T00:39:14.072Z,100561.26
2023-05-14T00:41:41.076Z,100565.05
2023-05-14T00:44:08.018Z,100564.55
2023-05-14T00:46:35.624Z,100569.45
2023-05-14T00:49:02.636Z,100569.11
2023-05-14T00:51:30.044Z,100573.69
2023-05-14T00:53:57.138Z,100576.81
2023-05-14T00:56:25.008Z,100590.14
2023-05-14T00:58:52.044Z,100595.61
2023-05-14T01:01:19.168Z,100600.98
2023-05-14T01:03:46.375Z,100593.84
2023-05-14T01:06:29.560Z,100595.23
2023-05-14T01:09:21.394Z,100611.11
2023-05-14T01:11:55.772Z,100615.05
2023-05-14T01:14:22.964Z,100608.05
2023-05-14T01:16:53.847Z,100598.14
2023-05-14T01:19:39.131Z,100590.02
2023-05-14T01:22:07.152Z,100576.86
2023-05-14T01:24:34.141Z,100594.96
2023-05-14T01:27:32.267Z,100593.42
2023-05-14T01:30:40.788Z,100594.37
2023-05-14T01:33:11.731Z,100575.63
2023-05-14T01:35:40.309Z,100583.92
2023-05-14T01:38:10.842Z,100583.09
2023-05-14T01:40:39.522Z,100575.70
2023-05-14T01:43:06.837Z,100580.13
2023-05-14T01:45:37.503Z,100599.34
2023-05-14T01:48:05.978Z,100603.31
2023-05-14T01:50:33.554Z,100598.95
2023-05-14T01:53:00.509Z,100593.37
2023-05-14T01:55:27.651Z,100579.65
2023-05-14T01:57:54.898Z,100560.75
2023-05-14T02:00:25.598Z,100529.98
2023-05-14T02:02:52.751Z,100525.27
2023-05-14T02:05:21.463Z,100526.33
2023-05-14T02:07:48.510Z,100527.40
2023-05-14T02:10:16.376Z,100558.55
2023-05-14T02:12:43.429Z,100545.50
2023-05-14T02:15:11.596Z,100529.36
2023-05-14T02:17:38.985Z,100525.81
2023-05-14T02:20:07.210Z,100503.40
2023-05-14T02:22:34.185Z,100489.45
2023-05-14T02:25:01.328Z,100504.98
2023-05-14T02:27:28.278Z,100498.56
2023-05-14T02:29:56.958Z,100489.96
2023-05-14T02:32:24.107Z,100478.05
2023-05-14T02:34:51.985Z,100466.04
2023-05-14T02:37:19.236Z,100464.55
2023-05-14T02:39:46.393Z,100450.46
2023-05-14T02:42:16.082Z,100446.13
2023-05-14T02:44:43.544Z,100437.63
2023-05-14T02:47:11.282Z,100434.06
2023-05-14T02:49:38.459Z,100435.02
2023-05-14T02:52:05.812Z,100433.27
2023-05-14T02:54:32.769Z,100436.20
2023-05-14T02:56:59.744Z,100435.57
2023-05-14T02:59:27.880Z,100444.94
2023-05-14T03:01:56.091Z,100440.43
2023-05-14T03:04:23.715Z,100440.86
2023-05-14T03:06:50.986Z,100433.44
2023-05-14T03:09:18.025Z,100432.88
2023-05-14T03:11:45.572Z,100438.59
2023-05-14T03:14:12.531Z,100431.56
2023-05-14T03:16:42.531Z,100434.58
2023-05-14T03:19:10.400Z,100433.50
2023-05-14T03:21:37.476Z,100430.02
2023-05-14T03:24:04.911Z,100435.20
2023-05-14T03:26:31.828Z,100440.36
2023-05-14T03:28:58.743Z,100449.10
2023-05-14T03:31:26.290Z,100453.66
2023-05-14T03:33:56.593Z,100450.79
2023-05-14T03:36:23.652Z,100454.82
2023-05-14T03:38:50.972Z,100460.05
2023-05-14T03:41:19.298Z,100468.84
2023-05-14T03:43:46.570Z,100487.91
2023-05-14T03:46:13.483Z,100488.06
2023-05-14T03:48:41.199Z,100479.23
2023-05-14T03:51:08.278Z,100484.71
2023-05-14T03:53:36.749Z,100492.31
2023-05-14T03:56:04.508Z,100483.97
2023-05-14T03:58:31.801Z,100484.09
2023-05-14T04:01:00.601Z,100506.92
2023-05-14T04:03:27.739Z,100533.58
2023-05-14T04:05:55.516Z,100546.98
2023-05-14T04:08:22.520Z,100559.52
2023-05-14T04:10:50.111Z,100534.63
2023-05-14T04:13:17.338Z,100527.05
2023-05-14T04:15:44.949Z,100524.66
2023-05-14T04:18:13.780Z,100538.81
2023-05-14T04:20:41.228Z,100570.70
2023-05-14T04:23:08.836Z,100556.65
2023-05-14T04:25:35.774Z,100558.92
2023-05-14T04:28:02.811Z,100571.09
2023-05-14T04:30:30.372Z,100582.78
2023-05-14T04:32:57.676Z,100569.60
2023-05-14T04:35:28.457Z,100604.30
2023-05-14T04:37:55.321Z,100602.55
2023-05-14T04:40:23.036Z,100618.98
2023-05-14T04:42:50.918Z,100645.44
2023-05-14T04:45:18.421Z,100612.96
2023-05-14T04:47:47.347Z,100639.29
2023-05-14T04:50:14.457Z,100643.73
2023-05-14T04:52:42.054Z,100635.39
2023-05-14T04:55:10.103Z,100640.38
2023-05-14T04:57:37.799Z,100644.94
2023-05-14T05:00:09.731Z,100648.23
2023-05-14T05:02:36.752Z,100650.20
2023-05-14T05:05:04.333Z,100651.67
2023-05-14T05:07:31.339Z,100663.89
2023-05-14T05:09:58.185Z,100671.11
2023-05-14T05:12:25.752Z,100661.08
2023-05-14T05:14:52.588Z,100655.84
2023-05-14T05:17:19.630Z,100659.23
2023-05-14T05:19:47.063Z,100658.66
2023-05-14T05:22:14.840Z,100641.16
2023-05-14T05:24:42.631Z,100629.04
2023-05-14T05:27:09.635Z,100614.48
2023-05-14T05:29:36.685Z,100603.44
2023-05-14T05:32:05.042Z,100606.38
2023-05-14T05:34:32.259Z,100616.63
2023-05-14T05:36:59.309Z,100640.08
2023-05-14T05:39:26.216Z,100683.77
2023-05-14T05:41:54.703Z,100697.12
2023-05-14T05:44:22.102Z,100686.28
2023-05-14T05:46:49.645Z,100679.00
2023-05-14T05:49:17.092Z,100686.60
2023-05-14T05:51:44.102Z,100693.23
2023-05-14T05:54:11.458Z,100697.66
2023-05-14T05:56:38.402Z,100703.58
2023-05-14T05:59:05.284Z,100704.00
2023-05-14T06:01:32.759Z,100703.80
2023-05-14T06:03:59.582Z,100714.56
2023-05-14T06:06:27.213Z,100724.06
2023-05-14T06:08:54.584Z,100742.45
2023-05-14T06:11:22.002Z,100753.45
2023-05-14T06:13:49.132Z,100772.36
2023-05-14T06:16:16.111Z,100802.17
2023-05-14T06:18:43.160Z,100806.54
2023-05-14T06:21:10.622Z,100817.42
2023-05-14T06:23:37.662Z,100817.05
2023-05-14T06:26:04.716Z,100808.14
2023-05-14T06:28:31.764Z,100812.04
2023-05-14T06:30:58.817Z,100799.40
2023-05-14T06:33:31.169Z,100790.39
2023-05-14T06:36:00.166Z,100788.65
2023-05-14T06:38:27.435Z,100779.95
2023-05-14T06:40:54.504Z,100768.48
2023-05-14T06:43:22.816Z,100769.77
2023-05-14T06:45:51.465Z,100779.25
2023-05-14T06:48:19.715Z,100785.98
2023-05-14T06:50:48.096Z,100787.95
2023-05-14T06:53:16.219Z,100796.39
2023-05-14T06:55:43.879Z,100797.73
2023-05-14T06:58:10.944Z,100785.11
2023-05-14T07:00:37.940Z,100775.25
2023-05-14T07:03:05.255Z,100768.70
2023-05-14T07:05:32.835Z,100773.69
2023-05-14T07:07:59.921Z,100785.81
2023-05-14T07:10:26.854Z,100785.39
2023-05-14T07:12:54.276Z,100782.83
2023-05-14T07:15:21.438Z,100776.05
2023-05-14T07:17:48.528Z,100754.46
2023-05-14T07:20:15.652Z,100756.62
2023-05-14T07:22:42.674Z,100780.51
2023-05-14T07:25:09.983Z,100816.57
2023-05-14T07:27:36.938Z,100809.09
2023-05-14T07:30:04.246Z,100779.13
2023-05-14T07:32:31.715Z,100761.31
2023-05-14T07:34:58.686Z,100741.80
2023-05-14T07:37:28.908Z,100703.20
2023-05-14T07:39:56.261Z,100654.05
2023-05-14T07:42:35.377Z,100652.90
2023-05-14T07:45:04.675Z,100681.99
2023-05-14T07:47:32.402Z,100677.23
2023-05-14T07:49:59.864Z,100653.45
2023-05-14T07:52:26.815Z,100617.48
2023-05-14T07:54:54.510Z,100619.41
2023-05-14T07:57:22.345Z,100676.36
2023-05-14T07:59:49.825Z,100727.28
2023-05-14T08:02:17.848Z,100758.23
2023-05-14T08:04:45.379Z,100772.42
2023-05-14T08:07:13.034Z,100781.67
2023-05-14T08:09:40.740Z,100797.30
2023-05-14T08:12:08.506Z,100809.54
2023-05-14T08:14:35.588Z,100808.98
2023-05-14T08:17:02.653Z,100812.55
2023-05-14T08:19:29.593Z,100802.15
2023-05-14T08:21:56.797Z,100772.32
2023-05-14T08:24:23.851Z,100749.77
2023-05-14T08:26:51.096Z,100744.69
2023-05-14T08:29:18.973Z,100749.91
2023-05-14T08:31:46.113Z,100772.27
2023-05-14T08:34:13.163Z,100767.98
2023-05-14T08:36:40.139Z,100792.83
2023-05-14T08:39:10.224Z,100790.24
2023-05-14T08:41:37.868Z,100784.66
2023-05-14T08:44:14.078Z,100767.72
2023-05-14T08:46:42.176Z,100753.20
2023-05-14T08:49:54.221Z,100761.18
2023-05-14T08:52:23.705Z,100772.54
2023-05-14T08:54:54.478Z,100788.91
2023-05-14T08:57:24.967Z,100808.41
2023-05-14T08:59:52.340Z,100825.60
2023-05-14T09:02:23.854Z,100830.92
2023-05-14T09:05:12.621Z,100827.95
2023-05-14T09:07:40.149Z,100819.86
2023-05-14T09:10:09.406Z,100794.35
2023-05-14T09:12:36.698Z,100753.30
2023-05-14T09:15:03.844Z,100744.30
2023-05-14T09:17:30.881Z,100747.80
2023-05-14T09:19:58.578Z,100752.36
2023-05-14T09:22:25.631Z,100744.96
2023-05-14T09:25:12.173Z,100736.98
2023-05-14T09:27:39.449Z,100725.38
2023-05-14T09:30:07.785Z,100706.86
2023-05-14T09:32:44.696Z,100694.48
2023-05-14T09:35:18.698Z,100713.23
2023-05-14T09:37:48.831Z,100741.26
2023-05-14T09:40:16.750Z,100751.96
2023-05-14T09:42:43.928Z,100751.93
2023-05-14T09:45:11.881Z,100737.56
2023-05-14T09:47:40.109Z,100755.15
2023-05-14T09:50:08.663Z,100791.73
2023-05-14T09:52:35.810Z,100811.52
2023-05-14T09:55:02.952Z,100815.13
2023-05-14T09:57:29.999Z,100821.21
2023-05-14T09:59:56.948Z,100828.09
2023-05-14T10:02:31.405Z,100852.41
2023-05-14T10:05:02.207Z,100878.69
2023-05-14T10:07:35.592Z,100907.75
2023-05-14T10:10:07.464Z,100914.68
2023-05-14T10:12:36.898Z,100902.19
2023-05-14T10:15:19.743Z,100903.26
2023-05-14T10:17:50.189Z,100898.70
2023-05-14T10:20:17.823Z,100867.76
2023-05-14T10:22:44.901Z,100838.31
2023-05-14T10:25:12.202Z,100815.21
2023-05-14T10:27:40.521Z,100798.67
2023-05-14T10:30:12.880Z,100790.74
2023-05-14T10:32:42.403Z,100793.14
2023-05-14T10:35:20.982Z,100803.98
2023-05-14T10:37:51.707Z,100810.81
2023-05-14T10:40:19.380Z,100794.81
2023-05-14T10:42:47.029Z,100773.78
2023-05-14T10:45:15.739Z,100755.88
2023-05-14T10:47:44.617Z,100736.70
2023-05-14T10:50:14.337Z,100713.75
2023-05-14T10:52:45.458Z,100709.20
2023-05-14T10:55:16.954Z,100698.05
2023-05-14T10:57:46.286Z,100694.77
2023-05-14T11:00:14.705Z,100704.10
2023-05-14T11:02:44.196Z,100722.73
2023-05-14T11:05:19.835Z,100724.75
2023-05-14T11:07:49.432Z,100726.16
2023-05-14T11:10:20.216Z,100742.80
2023-05-14T11:12:49.261Z,100823.66
2023-05-14T11:15:21.969Z,100930.27
2023-05-14T11:17:50.657Z,100982.16
2023-05-14T11:20:18.715Z,100964.36
2023-05-14T11:22:48.109Z,100915.29
2023-05-14T11:25:15.746Z,100886.61
2023-05-14T11:27:47.250Z,100869.80
2023-05-14T11:30:19.192Z,100857.98
2023-05-14T11:32:48.240Z,100843.66
2023-05-14T11:35:16.311Z,100825.63
2023-05-14T11:37:44.289Z,100813.00
2023-05-14T11:40:20.316Z,100836.70
2023-05-14T11:42:47.249Z,100843.33
2023-05-14T11:45:24.652Z,100832.70
2023-05-14T11:47:53.103Z,100826.04
2023-05-14T11:50:21.957Z,100816.41
2023-05-14T11:52:50.890Z,100801.85
2023-05-14T11:55:18.132Z,100795.69
2023-05-14T11:57:45.229Z,100786.75
2023-05-14T12:00:14.628Z,100779.63
2023-05-14T12:02:42.031Z,100765.29
2023-05-14T12:05:12.687Z,100744.75
2023-05-14T12:07:39.806Z,100730.80
2023-05-14T12:10:07.476Z,100716.25
2023-05-14T12:12:39.461Z,100705.29
2023-05-14T12:15:13.822Z,100704.92
2023-05-14T12:17:41.501Z,100706.71
2023-05-14T12:20:10.755Z,100711.20
2023-05-14T12:22:37.938Z,100713.17
2023-05-14T12:25:11.426Z,100718.86
2023-05-14T12:27:38.698Z,100717.80
2023-05-14T12:32:41.327Z,100751.97
2023-05-14T12:35:09.074Z,100765.52
2023-05-14T12:37:37.662Z,100760.16
2023-05-14T12:40:09.618Z,100722.77
2023-05-14T12:42:37.049Z,100691.55
2023-05-14T12:45:07.468Z,100693.04
2023-05-14T12:47:34.774Z,100685.23
2023-05-14T12:50:01.977Z,100673.09
2023-05-14T12:54:59.445Z,100663.27
2023-05-14T12:57:27.829Z,100678.89
2023-05-14T12:59:55.376Z,100687.44
2023-05-14T13:02:22.521Z,100696.48
2023-05-14T13:04:49.510Z,100706.37
2023-05-14T13:07:16.710Z,100718.36
2023-05-14T13:09:43.739Z,100732.73
2023-05-14T13:12:11.034Z,100748.73
2023-05-14T13:14:37.949Z,100744.95
2023-05-14T13:17:06.443Z,100766.27
2023-05-14T13:19:33.780Z,100819.14
2023-05-14T13:22:00.714Z,100845.58
2023-05-14T13:24:27.667Z,100863.13
2023-05-14T13:26:54.605Z,100878.12
2023-05-14T13:29:21.516Z,100868.13
2023-05-14T13:31:48.361Z,100822.11
2023-05-14T13:34:15.272Z,100751.89
2023-05-14T13:36:44.619Z,100711.11
2023-05-14T13:39:15.272Z,100711.77
2023-05-14T13:41:42.443Z,100713.31
2023-05-14T13:44:10.317Z,100743.48
2023-05-14T13:46:37.546Z,100751.22
2023-05-14T13:49:04.675Z,100756.86
2023-05-14T13:51:31.592Z,100761.22
2023-05-14T13:53:58.694Z,100777.14
2023-05-14T13:56:26.164Z,100795.93
2023-05-14T13:58:53.261Z,100804.34
2023-05-14T14:01:20.336Z,100819.33
2023-05-14T14:03:47.453Z,100842.23
2023-05-14T14:06:14.399Z,100856.43
2023-05-14T14:08:41.274Z,100841.66
2023-05-14T14:11:08.281Z,100821.27
2023-05-14T14:13:35.249Z,100789.39
2023-05-14T14:16:03.647Z,100771.91
2023-05-14T14:18:30.674Z,100752.27
2023-05-14T14:20:58.628Z,100747.74
2023-05-14T14:23:25.980Z,100746.66
2023-05-14T14:25:53.419Z,100760.42
2023-05-14T14:28:20.420Z,100775.73
2023-05-14T14:30:50.705Z,100788.69
2023-05-14T14:33:17.765Z,100791.14
2023-05-14T14:35:44.709Z,100790.91
2023-05-14T14:38:12.052Z,100761.36
2023-05-14T14:40:43.204Z,100729.61
2023-05-14T14:43:10.262Z,100716.87
2023-05-14T14:45:37.570Z,100725.13
2023-05-14T14:48:22.771Z,100721.99
2023-05-14T14:50:49.909Z,100725.87
2023-05-14T14:53:16.727Z,100723.16
2023-05-14T14:55:43.752Z,100725.81
2023-05-14T14:58:10.775Z,100723.58
2023-05-14T15:00:38.236Z,100688.55
2023-05-14T15:03:05.337Z,100649.79
2023-05-14T15:05:32.432Z,100626.49
2023-05-14T15:07:59.357Z,100587.83
2023-05-14T15:10:29.075Z,100569.06
2023-05-14T15:12:58.757Z,100554.55
2023-05-14T15:15:26.565Z,100522.43
2023-05-14T15:17:53.592Z,100494.73
2023-05-14T15:20:20.571Z,100467.77
2023-05-14T15:22:47.521Z,100440.85
2023-05-14T15:25:14.368Z,100444.19
2023-05-14T15:27:41.262Z,100463.97
2023-05-14T15:30:08.696Z,100431.58
2023-05-14T15:32:35.654Z,100445.54
2023-05-14T15:35:04.013Z,100438.90
2023-05-14T15:37:41.373Z,100403.10
2023-05-14T15:40:09.226Z,100418.57
2023-05-14T15:42:44.661Z,100416.86
2023-05-14T15:45:13.546Z,100415.56
2023-05-14T15:47:41.302Z,100427.27
2023-05-14T15:50:08.964Z,100385.86
2023-05-14T15:52:40.210Z,100382.26
2023-05-14T15:55:07.586Z,100375.34
2023-05-14T15:57:34.860Z,100393.83
2023-05-14T16:00:02.031Z,100379.27
2023-05-14T16:02:33.462Z,100377.91
2023-05-14T16:05:00.633Z,100343.19
2023-05-14T16:07:27.771Z,100338.98
2023-05-14T16:09:54.973Z,100334.73
2023-05-14T16:12:21.983Z,100370.27
2023-05-14T16:14:48.957Z,100386.27
2023-05-14T16:17:16.004Z,100422.11
2023-05-14T16:19:43.150Z,100449.57
2023-05-14T16:22:10.244Z,100468.20
2023-05-14T16:24:37.145Z,100487.66
2023-05-14T16:27:04.299Z,100512.09
2023-05-14T16:29:34.772Z,100557.71
2023-05-14T16:32:02.770Z,100589.34
2023-05-14T16:34:29.797Z,100609.81
2023-05-14T16:36:56.893Z,100622.99
2023-05-14T16:39:23.949Z,100588.44
2023-05-14T16:41:50.979Z,100575.02
2023-05-14T16:44:17.925Z,100569.39
2023-05-14T16:46:45.178Z,100574.56
2023-05-14T16:49:12.632Z,100579.82
2023-05-14T16:51:43.276Z,100549.26
2023-05-14T16:54:10.308Z,100509.67
2023-05-14T16:56:37.324Z,100481.33
2023-05-14T16:59:04.197Z,100498.65
2023-05-14T17:01:31.511Z,100528.88
2023-05-14T17:03:58.531Z,100512.14
2023-05-14T17:06:26.087Z,100508.64
2023-05-14T17:08:53.023Z,100516.65
2023-05-14T17:11:21.176Z,100522.52
2023-05-14T17:13:48.242Z,100546.06
2023-05-14T17:16:15.165Z,100548.70
2023-05-14T17:18:42.299Z,100536.03
2023-05-14T17:21:09.613Z,100538.27
2023-05-14T17:23:36.673Z,100533.06
2023-05-14T17:26:03.743Z,100538.80
2023-05-14T17:28:30.704Z,100564.96
2023-05-14T17:31:00.299Z,100593.27
2023-05-14T17:33:27.325Z,100648.38
2023-05-14T17:35:54.341Z,100665.84
2023-05-14T17:38:21.274Z,100678.86
2023-05-14T17:40:48.200Z,100673.46
2023-05-14T17:43:15.149Z,100670.94
2023-05-14T17:45:53.135Z,100658.77
2023-05-14T17:48:22.487Z,100653.73
2023-05-14T17:50:49.812Z,100673.92
2023-05-14T17:53:16.974Z,100686.36
2023-05-14T17:55:44.608Z,100684.42
2023-05-14T17:58:14.009Z,100704.67
2023-05-14T18:00:41.950Z,100707.79
2023-05-14T18:03:09.343Z,100717.55
2023-05-14T18:05:36.711Z,100722.87
2023-05-14T18:08:03.624Z,100698.89
2023-05-14T18:10:30.662Z,100685.96
2023-05-14T18:12:57.618Z,100677.02
2023-05-14T18:15:25.898Z,100656.08
2023-05-14T18:17:53.224Z,100657.18
2023-05-14T18:20:20.791Z,100670.02
2023-05-14T18:22:47.939Z,100661.45
2023-05-14T18:25:15.230Z,100659.58
2023-05-14T18:27:45.608Z,100674.21
2023-05-14T18:30:16.864Z,100670.45
2023-05-14T18:32:44.833Z,100643.55
2023-05-14T18:35:13.187Z,100647.13
2023-05-14T18:37:47.443Z,100656.27
2023-05-14T18:40:18.662Z,100634.22
2023-05-14T18:42:45.991Z,100637.13
2023-05-14T18:45:12.908Z,100649.33
2023-05-14T18:47:40.232Z,100660.17
2023-05-14T18:50:08.096Z,100680.11
2023-05-14T18:52:35.395Z,100691.02
2023-05-14T18:55:02.261Z,100684.52
2023-05-14T18:57:36.043Z,100672.02
2023-05-14T19:00:04.194Z,100661.87
2023-05-14T19:02:31.353Z,100669.05
2023-05-14T19:04:58.433Z,100711.27
2023-05-14T19:07:27.357Z,100726.80
2023-05-14T19:09:54.294Z,100725.48
2023-05-14T19:12:21.168Z,100726.64
2023-05-14T19:14:48.251Z,100715.80
2023-05-14T19:17:15.831Z,100706.65
2023-05-14T19:19:44.382Z,100716.54
2023-05-14T19:22:11.362Z,100710.02
2023-05-14T19:24:38.298Z,100677.77
2023-05-14T19:27:05.577Z,100672.91
2023-05-14T19:29:36.850Z,100671.30
2023-05-14T19:32:07.348Z,100652.73
2023-05-14T19:34:34.452Z,100640.97
2023-05-14T19:37:01.519Z,100652.71
2023-05-14T19:39:28.511Z,100671.89
2023-05-14T19:41:55.451Z,100685.77
2023-05-14T19:44:22.342Z,100694.02
2023-05-14T19:46:49.389Z,100699.02
2023-05-14T19:49:16.454Z,100705.63
2023-05-14T19:51:43.292Z,100694.35
2023-05-14T19:54:10.233Z,100676.19
2023-05-14T19:56:38.405Z,100660.81
2023-05-14T19:59:05.406Z,100659.60
2023-05-14T20:01:32.732Z,100642.48
2023-05-14T20:03:59.679Z,100618.13
2023-05-14T20:06:27.171Z,100589.27
2023-05-14T20:08:55.321Z,100584.09
2023-05-14T20:11:22.199Z,100588.55
2023-05-14T20:13:51.292Z,100600.40
2023-05-14T20:16:18.731Z,100606.05
2023-05-14T20:18:46.270Z,100608.84
2023-05-14T20:21:13.296Z,100589.00
2023-05-14T20:23:40.271Z,100560.09
2023-05-14T20:26:07.239Z,100549.50
2023-05-14T20:28:34.573Z,100559.13
2023-05-14T20:31:04.202Z,100569.72
2023-05-14T20:33:31.393Z,100564.26
2023-05-14T20:35:58.541Z,100551.84
2023-05-14T20:38:29.511Z,100565.17
2023-05-14T20:40:56.510Z,100560.53
2023-05-14T20:43:23.763Z,100546.41
2023-05-14T20:45:50.663Z,100537.61
2023-05-14T20:48:18.077Z,100547.08
2023-05-14T20:50:45.022Z,100567.35
2023-05-14T20:53:11.957Z,100564.77
2023-05-14T20:55:43.134Z,100565.68
2023-05-14T20:58:11.057Z,100573.23
2023-05-14T21:00:38.027Z,100573.20
2023-05-14T21:03:05.085Z,100569.96
2023-05-14T21:05:32.610Z,100567.10
2023-05-14T21:08:00.199Z,100564.94
2023-05-14T21:10:27.606Z,100560.20
2023-05-14T21:12:55.900Z,100548.78
2023-05-14T21:15:23.406Z,100538.94
2023-05-14T21:17:51.674Z,100526.64
2023-05-14T21:20:18.798Z,100509.48
2023-05-14T21:22:46.142Z,100489.55
2023-05-14T21:25:13.304Z,100476.89
2023-05-14T21:27:40.339Z,100463.19
2023-05-14T21:30:08.108Z,100455.90
2023-05-14T21:32:35.141Z,100454.63
2023-05-14T21:35:02.320Z,100456.98
2023-05-14T21:37:29.346Z,100457.51
2023-05-14T21:39:56.234Z,100465.11
2023-05-14T21:42:26.566Z,100462.02
2023-05-14T21:44:53.789Z,100466.32
2023-05-14T21:47:21.264Z,100472.27
2023-05-14T21:49:48.170Z,100472.55
2023-05-14T21:52:15.894Z,100471.91
2023-05-14T21:54:44.155Z,100456.05
2023-05-14T21:57:11.036Z,100460.17
2023-05-14T21:59:37.975Z,100461.65
2023-05-14T22:02:07.736Z,100464.10
2023-05-14T22:04:35.436Z,100473.30
2023-05-14T22:07:03.454Z,100478.35
2023-05-14T22:09:30.751Z,100467.65
2023-05-14T22:11:58.498Z,100456.70
2023-05-14T22:14:27.434Z,100444.64
2023-05-14T22:16:54.683Z,100439.18
2023-05-14T22:19:21.667Z,100440.02
2023-05-14T22:21:48.540Z,100438.85
2023-05-14T22:24:15.949Z,100438.43
2023-05-14T22:26:42.887Z,100436.16
2023-05-14T22:29:09.835Z,100434.98
2023-05-14T22:31:37.015Z,100424.29
2023-05-14T22:34:04.284Z,100415.93
2023-05-14T22:36:31.427Z,100418.40
2023-05-14T22:38:58.535Z,100411.27
2023-05-14T22:41:26.760Z,100403.87
2023-05-14T22:43:53.764Z,100404.86
2023-05-14T22:46:21.483Z,100388.33
2023-05-14T22:48:49.363Z,100388.41
2023-05-14T22:51:16.749Z,100372.24
2023-05-14T22:53:43.700Z,100372.40
2023-05-14T22:56:10.912Z,100368.92
2023-05-14T22:58:37.892Z,100359.90
2023-05-14T23:01:05.239Z,100347.72
2023-05-14T23:03:32.197Z,100336.86
2023-05-14T23:05:59.301Z,100316.36
2023-05-14T23:08:26.282Z,100313.13
2023-05-14T23:10:53.228Z,100303.77
2023-05-14T23:13:20.474Z,100297.17
2023-05-14T23:15:47.622Z,100295.98
2023-05-14T23:18:14.623Z,100285.76
2023-05-14T23:20:41.664Z,100279.39
2023-05-14T23:23:08.678Z,100277.61
2023-05-14T23:25:35.727Z,100281.45
2023-05-14T23:28:02.865Z,100289.63
2023-05-14T23:30:30.216Z,100291.20
2023-05-14T23:32:57.200Z,100291.71
2023-05-14T23:35:25.254Z,100290.05
2023-05-14T23:37:52.537Z,100293.08
2023-05-14T23:40:19.424Z,100305.33
2023-05-14T23:42:46.658Z,100303.80
2023-05-14T23:45:14.047Z,100292.58
2023-05-14T23:47:41.526Z,100282.88
2023-05-14T23:50:09.020Z,100288.41
2023-05-14T23:52:35.953Z,100282.36
2023-05-14T23:55:02.942Z,100270.96
2023-05-14T23:57:30.119Z,100258.21
2023-05-14T23:59:57.067Z,100267.83
